Terminal Aerodrome Forecast
Issued by NWS

Home | Current Version | Previous Version | Text Only | Print | Product List | Glossary On
Versions: 1 2 3 4 5 6 7 8 9 10 11 12
024
FTUS46 KHNX 051133
TAFBFL
TAF
KBFL 051133Z 0512/0612 01012KT P6SM OVC060
     FM052100 29010KT P6SM SCT030 BKN060 PROB30 0523/0605 4SM -TSRA
      BKN030CB
     FM060500 35010KT P6SM SCT030 BKN050 PROB30 0606/0609 P6SM -SHRA
      OVC030=

USA.gov is the U.S. government's official web portal to all federal, state and local government web resources and services.